Airport View

Enter AWOS ICAO identifier for current METAR.

ex. KFNL

KHNR 261815Z AUTO 34010G18KT 10SM CLR M00/M12 A3034 RMK AO2

26 Feb 2020 18:15

Frequency: 118.325

Phone: 712-744-4400

Other Area AWOS: KAIO - KADU - KDNS - KCBF

TAF KOMA 261734Z 2618/2718 34009KT P6SM SKC FM270000 23005KT P6SM SKC FM271600 23005KT P6SM BKN100